Mathers Mills, OH

7:47 PM EST on February 26, 2017 (GMT -0500)
MOH051 | | Change Station

Elev 797 ft 39.57 °N, 84.65 °W | Updated 37 minutes ago

Mostly Cloudy
Mostly Cloudy
43.0 °F
Feels Like 43.0 °F
N
1.0
Wind Variable Wind from North
Gusts 3.0 mph

Today
High -- | Low -- °F
--% Chance of Precip.
Yesterday
High -- | Low -- °F
Precip. -- in
Pressure 30.16 in
Visibility 10.0 miles
Clouds Overcast 10000 ft
Dew Point 18.0 °F
Humidity 36%
Rainfall 0.00 in
Snow Depth Not available.
7:13 AM 6:25 PM
New Moon, 0% visible
METAR KMGY 262353Z AUTO 20008KT 10SM OVC100 06/M09 A3013 RMK AO2 SLP213 T00611094 10072 20033 53004
Pressure 30.16 in
Visibility 10.0 miles
Clouds Overcast 10000 ft
Dew Point 18.0 °F
Humidity 36%
Rainfall 0.00 in
Snow Depth Not available.
7:13 AM 6:25 PM
New Moon, 0% visible
METAR KMGY 262353Z AUTO 20008KT 10SM OVC100 06/M09 A3013 RMK AO2 SLP213 T00611094 10072 20033 53004

Get Your Daily Forecast Email!

Thanks for signing up!

Be on the lookout for a verification email in your inbox.

You'll start receiving the daily forecast at 8 AM.

×

10-Day Weather Forecast

Almanac

Astronomy

Feb. 26, 2017 Rise Set
Actual Time
Civil Twilight
Nautical Twilight
Astronomical Twilight
Moon
Length of Visible Light
Length of Day
Tomorrow will be .
, % of the Moon is Illuminated

Today's Extremes

State Highs State Lows

Community

WunderPhotos

Upload Photos

1,962,540 photos uploaded!

WunderBlog® & News

Nearby

Air Quality

  Air Quality AQ Index Pollutant
Not available.

Snow Depth

Station Depth Elevation

Earthquake Activity

City Distance Mag. Time & Date
Minimum magnitude displayed is 2.5.

Coastal Water Temperatures

Place Temperature

Stations

Nearby Weather Stations

Station Location Temp. Windchill Dew Point Humidity Wind Precip. Elev Updated Type
                   

Watches & Warnings

There are currently no watches in effect.